sensor_id;sensor_type;location;lat;lon;timestamp;pressure;altitude;pressure_sealevel;temperature;humidity
9249;BME280;4660;41.768;26.198;2022-10-16T00:01:55;101543.88;;;10.15;100.00
9249;BME280;4660;41.768;26.198;2022-10-16T00:04:21;101561.72;;;10.16;100.00
9249;BME280;4660;41.768;26.198;2022-10-16T00:06:46;101548.72;;;10.10;100.00
9249;BME280;4660;41.768;26.198;2022-10-16T00:09:13;101552.88;;;10.03;100.00
9249;BME280;4660;41.768;26.198;2022-10-16T00:11:40;101555.94;;;10.20;100.00
9249;BME280;4660;41.768;26.198;2022-10-16T00:14:12;101554.31;;;10.42;100.00
9249;BME280;4660;41.768;26.198;2022-10-16T00:16:38;101562.94;;;10.58;100.00
9249;BME280;4660;41.768;26.198;2022-10-16T00:19:03;101562.41;;;10.64;100.00
9249;BME280;4660;41.768;26.198;2022-10-16T00:21:30;101564.88;;;10.67;100.00
9249;BME280;4660;41.768;26.198;2022-10-16T00:24:02;101572.44;;;10.62;100.00
9249;BME280;4660;41.768;26.198;2022-10-16T00:26:29;101561.56;;;10.53;100.00
9249;BME280;4660;41.768;26.198;2022-10-16T00:28:55;101557.22;;;10.28;100.00
9249;BME280;4660;41.768;26.198;2022-10-16T00:31:22;101569.78;;;10.16;100.00
9249;BME280;4660;41.768;26.198;2022-10-16T00:33:48;101550.97;;;9.92;100.00
9249;BME280;4660;41.768;26.198;2022-10-16T00:36:17;101560.97;;;9.79;100.00
9249;BME280;4660;41.768;26.198;2022-10-16T00:38:44;101556.31;;;9.81;100.00
9249;BME280;4660;41.768;26.198;2022-10-16T00:41:15;101555.88;;;9.98;100.00
9249;BME280;4660;41.768;26.198;2022-10-16T00:43:46;101562.19;;;10.21;100.00
9249;BME280;4660;41.768;26.198;2022-10-16T00:46:22;101557.69;;;10.22;100.00
9249;BME280;4660;41.768;26.198;2022-10-16T00:48:53;101569.84;;;10.38;100.00
9249;BME280;4660;41.768;26.198;2022-10-16T00:51:25;101561.06;;;10.12;100.00
9249;BME280;4660;41.768;26.198;2022-10-16T00:53:51;101564.22;;;10.06;100.00
9249;BME280;4660;41.768;26.198;2022-10-16T00:56:17;101573.84;;;9.98;100.00
9249;BME280;4660;41.768;26.198;2022-10-16T00:58:43;101561.19;;;9.76;100.00
9249;BME280;4660;41.768;26.198;2022-10-16T01:01:09;101550.88;;;9.70;100.00
9249;BME280;4660;41.768;26.198;2022-10-16T01:03:36;101546.94;;;9.62;100.00
9249;BME280;4660;41.768;26.198;2022-10-16T01:06:14;101565.44;;;10.02;100.00
9249;BME280;4660;41.768;26.198;2022-10-16T01:25:25;101569.78;;;9.20;100.00
9249;BME280;4660;41.768;26.198;2022-10-16T01:27:56;101551.94;;;9.19;100.00
9249;BME280;4660;41.768;26.198;2022-10-16T01:30:30;101583.00;;;9.23;100.00
9249;BME280;4660;41.768;26.198;2022-10-16T01:35:59;101585.72;;;9.34;100.00
9249;BME280;4660;41.768;26.198;2022-10-16T01:38:34;101585.66;;;9.36;100.00
9249;BME280;4660;41.768;26.198;2022-10-16T01:41:06;101589.06;;;9.38;100.00
9249;BME280;4660;41.768;26.198;2022-10-16T01:43:43;101593.75;;;9.47;100.00
9249;BME280;4660;41.768;26.198;2022-10-16T01:46:10;101609.28;;;9.31;100.00
9249;BME280;4660;41.768;26.198;2022-10-16T01:48:39;101594.91;;;9.19;100.00
9249;BME280;4660;41.768;26.198;2022-10-16T01:51:07;101604.22;;;9.26;100.00
9249;BME280;4660;41.768;26.198;2022-10-16T01:53:34;101605.03;;;9.16;100.00
9249;BME280;4660;41.768;26.198;2022-10-16T01:56:02;101602.25;;;9.04;100.00
9249;BME280;4660;41.768;26.198;2022-10-16T01:58:30;101605.25;;;9.00;100.00
9249;BME280;4660;41.768;26.198;2022-10-16T02:01:01;101611.88;;;9.20;100.00
9249;BME280;4660;41.768;26.198;2022-10-16T02:03:27;101619.00;;;9.08;100.00
9249;BME280;4660;41.768;26.198;2022-10-16T02:05:55;101621.13;;;9.16;100.00
9249;BME280;4660;41.768;26.198;2022-10-16T02:08:24;101627.66;;;9.24;100.00
9249;BME280;4660;41.768;26.198;2022-10-16T02:10:51;101631.34;;;9.10;100.00
9249;BME280;4660;41.768;26.198;2022-10-16T02:13:23;101610.72;;;8.98;100.00
9249;BME280;4660;41.768;26.198;2022-10-16T02:15:49;101635.97;;;9.08;100.00
9249;BME280;4660;41.768;26.198;2022-10-16T02:18:15;101610.22;;;8.80;100.00
9249;BME280;4660;41.768;26.198;2022-10-16T02:23:23;101635.34;;;8.79;100.00
9249;BME280;4660;41.768;26.198;2022-10-16T02:25:53;101639.84;;;8.79;100.00
9249;BME280;4660;41.768;26.198;2022-10-16T02:28:28;101625.66;;;8.64;100.00
9249;BME280;4660;41.768;26.198;2022-10-16T02:30:59;101649.38;;;8.70;100.00
9249;BME280;4660;41.768;26.198;2022-10-16T02:33:27;101642.38;;;8.55;100.00
9249;BME280;4660;41.768;26.198;2022-10-16T02:35:55;101656.38;;;8.73;100.00
9249;BME280;4660;41.768;26.198;2022-10-16T02:38:22;101647.66;;;8.69;100.00
9249;BME280;4660;41.768;26.198;2022-10-16T02:40:48;101669.03;;;8.83;100.00
9249;BME280;4660;41.768;26.198;2022-10-16T02:43:15;101646.78;;;8.69;100.00
9249;BME280;4660;41.768;26.198;2022-10-16T02:45:41;101667.09;;;8.73;100.00
9249;BME280;4660;41.768;26.198;2022-10-16T02:48:07;101663.88;;;8.68;100.00
9249;BME280;4660;41.768;26.198;2022-10-16T02:50:32;101641.97;;;8.74;100.00
9249;BME280;4660;41.768;26.198;2022-10-16T02:52:58;101668.38;;;9.05;100.00
9249;BME280;4660;41.768;26.198;2022-10-16T02:55:23;101661.16;;;9.06;100.00
9249;BME280;4660;41.768;26.198;2022-10-16T02:57:49;101665.91;;;9.02;100.00
9249;BME280;4660;41.768;26.198;2022-10-16T03:00:15;101643.69;;;8.88;100.00
9249;BME280;4660;41.768;26.198;2022-10-16T03:02:42;101665.03;;;8.76;100.00
9249;BME280;4660;41.768;26.198;2022-10-16T03:05:09;101669.13;;;8.82;100.00
9249;BME280;4660;41.768;26.198;2022-10-16T03:07:35;101661.72;;;8.73;100.00
9249;BME280;4660;41.768;26.198;2022-10-16T03:10:00;101660.44;;;8.66;100.00
9249;BME280;4660;41.768;26.198;2022-10-16T03:12:27;101663.53;;;8.60;100.00
9249;BME280;4660;41.768;26.198;2022-10-16T03:14:53;101671.78;;;8.57;100.00
9249;BME280;4660;41.768;26.198;2022-10-16T03:17:19;101677.59;;;8.76;100.00
9249;BME280;4660;41.768;26.198;2022-10-16T03:19:44;101683.72;;;8.91;100.00
9249;BME280;4660;41.768;26.198;2022-10-16T03:22:10;101682.97;;;8.89;100.00
9249;BME280;4660;41.768;26.198;2022-10-16T03:24:35;101649.91;;;8.63;100.00
9249;BME280;4660;41.768;26.198;2022-10-16T03:27:01;101688.34;;;8.76;100.00
9249;BME280;4660;41.768;26.198;2022-10-16T03:29:27;101679.28;;;8.51;100.00
9249;BME280;4660;41.768;26.198;2022-10-16T03:31:55;101688.66;;;8.59;100.00
9249;BME280;4660;41.768;26.198;2022-10-16T03:34:20;101682.06;;;8.50;100.00
9249;BME280;4660;41.768;26.198;2022-10-16T03:36:46;101679.28;;;8.51;100.00
9249;BME280;4660;41.768;26.198;2022-10-16T03:39:11;101695.06;;;8.43;100.00
9249;BME280;4660;41.768;26.198;2022-10-16T03:41:37;101682.75;;;8.66;100.00
9249;BME280;4660;41.768;26.198;2022-10-16T03:44:02;101679.41;;;8.63;100.00
9249;BME280;4660;41.768;26.198;2022-10-16T03:46:28;101697.44;;;8.61;100.00
9249;BME280;4660;41.768;26.198;2022-10-16T03:48:54;101697.56;;;8.72;100.00
9249;BME280;4660;41.768;26.198;2022-10-16T03:51:20;101700.13;;;8.61;100.00
9249;BME280;4660;41.768;26.198;2022-10-16T03:53:46;101703.63;;;8.48;100.00
9249;BME280;4660;41.768;26.198;2022-10-16T03:56:11;101702.25;;;8.55;100.00
9249;BME280;4660;41.768;26.198;2022-10-16T03:58:37;101695.47;;;8.50;100.00
9249;BME280;4660;41.768;26.198;2022-10-16T04:01:02;101690.44;;;8.45;100.00
9249;BME280;4660;41.768;26.198;2022-10-16T04:03:28;101700.22;;;8.59;100.00
9249;BME280;4660;41.768;26.198;2022-10-16T04:05:54;101701.19;;;8.71;100.00
9249;BME280;4660;41.768;26.198;2022-10-16T04:08:19;101699.50;;;8.82;100.00
9249;BME280;4660;41.768;26.198;2022-10-16T04:10:45;101707.03;;;8.90;100.00
9249;BME280;4660;41.768;26.198;2022-10-16T04:13:11;101692.84;;;8.75;100.00
9249;BME280;4660;41.768;26.198;2022-10-16T04:15:37;101701.63;;;8.77;100.00
9249;BME280;4660;41.768;26.198;2022-10-16T04:18:04;101707.53;;;8.70;100.00
9249;BME280;4660;41.768;26.198;2022-10-16T04:20:29;101703.22;;;8.54;100.00
9249;BME280;4660;41.768;26.198;2022-10-16T04:22:55;101696.88;;;8.55;100.00
9249;BME280;4660;41.768;26.198;2022-10-16T04:25:21;101711.50;;;8.77;100.00
9249;BME280;4660;41.768;26.198;2022-10-16T04:27:46;101717.53;;;8.80;100.00
9249;BME280;4660;41.768;26.198;2022-10-16T04:30:12;101701.84;;;8.62;100.00
9249;BME280;4660;41.768;26.198;2022-10-16T04:32:38;101711.31;;;8.80;100.00
9249;BME280;4660;41.768;26.198;2022-10-16T04:35:04;101701.13;;;8.72;100.00
9249;BME280;4660;41.768;26.198;2022-10-16T04:37:30;101721.63;;;8.86;100.00
9249;BME280;4660;41.768;26.198;2022-10-16T04:39:55;101717.44;;;8.82;100.00
9249;BME280;4660;41.768;26.198;2022-10-16T04:42:21;101724.31;;;8.86;100.00
9249;BME280;4660;41.768;26.198;2022-10-16T04:44:46;101732.97;;;8.77;100.00
9249;BME280;4660;41.768;26.198;2022-10-16T04:47:12;101725.41;;;8.57;100.00
9249;BME280;4660;41.768;26.198;2022-10-16T04:49:38;101735.75;;;8.63;100.00
9249;BME280;4660;41.768;26.198;2022-10-16T04:52:04;101739.09;;;8.66;100.00
9249;BME280;4660;41.768;26.198;2022-10-16T04:54:30;101743.78;;;8.63;100.00
9249;BME280;4660;41.768;26.198;2022-10-16T04:56:55;101712.16;;;8.68;100.00
9249;BME280;4660;41.768;26.198;2022-10-16T04:59:22;101733.22;;;8.99;100.00
9249;BME280;4660;41.768;26.198;2022-10-16T05:01:48;101749.22;;;9.14;100.00
9249;BME280;4660;41.768;26.198;2022-10-16T05:04:14;101724.63;;;9.07;100.00
9249;BME280;4660;41.768;26.198;2022-10-16T05:06:40;101739.66;;;9.35;100.00
9249;BME280;4660;41.768;26.198;2022-10-16T05:09:07;101752.78;;;9.40;100.00
9249;BME280;4660;41.768;26.198;2022-10-16T05:11:33;101738.72;;;9.36;100.00
9249;BME280;4660;41.768;26.198;2022-10-16T05:13:58;101754.59;;;9.52;100.00
9249;BME280;4660;41.768;26.198;2022-10-16T05:16:24;101738.59;;;9.37;100.00
9249;BME280;4660;41.768;26.198;2022-10-16T05:18:51;101748.94;;;9.44;100.00
9249;BME280;4660;41.768;26.198;2022-10-16T05:21:17;101741.69;;;9.57;100.00
9249;BME280;4660;41.768;26.198;2022-10-16T05:23:42;101734.50;;;9.57;100.00
9249;BME280;4660;41.768;26.198;2022-10-16T05:26:08;101738.53;;;9.76;100.00
9249;BME280;4660;41.768;26.198;2022-10-16T05:28:35;101746.50;;;9.77;100.00
9249;BME280;4660;41.768;26.198;2022-10-16T05:31:08;101739.41;;;9.76;100.00
9249;BME280;4660;41.768;26.198;2022-10-16T05:33:34;101755.41;;;9.78;100.00
9249;BME280;4660;41.768;26.198;2022-10-16T05:36:02;101746.06;;;9.71;100.00
9249;BME280;4660;41.768;26.198;2022-10-16T05:38:28;101762.81;;;9.87;100.00
9249;BME280;4660;41.768;26.198;2022-10-16T05:40:53;101758.38;;;9.99;100.00
9249;BME280;4660;41.768;26.198;2022-10-16T05:43:23;101774.47;;;10.11;100.00
9249;BME280;4660;41.768;26.198;2022-10-16T05:45:56;101752.50;;;10.17;100.00
9249;BME280;4660;41.768;26.198;2022-10-16T05:48:22;101778.38;;;10.44;100.00
9249;BME280;4660;41.768;26.198;2022-10-16T05:50:48;101781.09;;;10.55;100.00
9249;BME280;4660;41.768;26.198;2022-10-16T05:53:15;101755.00;;;10.68;100.00
9249;BME280;4660;41.768;26.198;2022-10-16T05:55:40;101785.31;;;10.94;100.00
9249;BME280;4660;41.768;26.198;2022-10-16T05:58:06;101784.34;;;10.95;100.00
9249;BME280;4660;41.768;26.198;2022-10-16T06:00:32;101786.44;;;11.03;100.00
9249;BME280;4660;41.768;26.198;2022-10-16T06:02:58;101791.97;;;11.13;100.00
9249;BME280;4660;41.768;26.198;2022-10-16T06:05:26;101802.66;;;11.25;100.00
9249;BME280;4660;41.768;26.198;2022-10-16T06:07:52;101795.56;;;11.24;100.00
9249;BME280;4660;41.768;26.198;2022-10-16T06:10:23;101789.31;;;11.24;100.00
9249;BME280;4660;41.768;26.198;2022-10-16T06:12:49;101793.25;;;11.42;100.00
9249;BME280;4660;41.768;26.198;2022-10-16T06:15:15;101776.22;;;11.30;100.00
9249;BME280;4660;41.768;26.198;2022-10-16T06:17:42;101822.06;;;11.64;100.00
9249;BME280;4660;41.768;26.198;2022-10-16T06:20:08;101795.34;;;11.61;100.00
9249;BME280;4660;41.768;26.198;2022-10-16T06:22:34;101806.16;;;11.72;100.00
9249;BME280;4660;41.768;26.198;2022-10-16T06:25:00;101790.69;;;11.52;100.00
9249;BME280;4660;41.768;26.198;2022-10-16T06:27:26;101814.09;;;11.51;100.00
9249;BME280;4660;41.768;26.198;2022-10-16T06:29:52;101814.19;;;11.50;100.00
9249;BME280;4660;41.768;26.198;2022-10-16T06:32:19;101805.97;;;11.40;100.00
9249;BME280;4660;41.768;26.198;2022-10-16T06:34:45;101758.94;;;11.33;100.00
9249;BME280;4660;41.768;26.198;2022-10-16T06:37:12;101817.47;;;11.89;100.00
9249;BME280;4660;41.768;26.198;2022-10-16T06:39:37;101812.44;;;11.95;100.00
9249;BME280;4660;41.768;26.198;2022-10-16T06:42:02;101796.94;;;12.20;100.00
9249;BME280;4660;41.768;26.198;2022-10-16T06:44:28;101824.13;;;12.50;100.00
9249;BME280;4660;41.768;26.198;2022-10-16T06:46:53;101817.56;;;12.64;100.00
9249;BME280;4660;41.768;26.198;2022-10-16T06:49:19;101788.16;;;12.50;100.00
9249;BME280;4660;41.768;26.198;2022-10-16T06:51:48;101822.72;;;12.67;100.00
9249;BME280;4660;41.768;26.198;2022-10-16T06:54:15;101788.84;;;12.63;100.00
9249;BME280;4660;41.768;26.198;2022-10-16T06:56:42;101804.50;;;12.80;100.00
9249;BME280;4660;41.768;26.198;2022-10-16T06:59:07;101786.31;;;12.82;100.00
9249;BME280;4660;41.768;26.198;2022-10-16T07:01:33;101801.28;;;13.07;100.00
9249;BME280;4660;41.768;26.198;2022-10-16T07:04:00;101810.03;;;13.32;100.00
9249;BME280;4660;41.768;26.198;2022-10-16T07:06:31;101792.69;;;13.34;100.00
9249;BME280;4660;41.768;26.198;2022-10-16T07:08:57;101743.31;;;13.32;100.00
9249;BME280;4660;41.768;26.198;2022-10-16T07:11:23;101830.34;;;13.77;100.00
9249;BME280;4660;41.768;26.198;2022-10-16T07:13:50;101794.06;;;13.49;100.00
9249;BME280;4660;41.768;26.198;2022-10-16T07:16:19;101819.16;;;13.82;100.00
9249;BME280;4660;41.768;26.198;2022-10-16T07:18:45;101784.34;;;13.68;100.00
9249;BME280;4660;41.768;26.198;2022-10-16T07:21:18;101840.59;;;14.04;100.00
9249;BME280;4660;41.768;26.198;2022-10-16T07:23:44;101816.69;;;14.10;100.00
9249;BME280;4660;41.768;26.198;2022-10-16T07:26:11;101797.00;;;13.98;100.00
9249;BME280;4660;41.768;26.198;2022-10-16T07:28:37;101818.81;;;14.46;100.00
9249;BME280;4660;41.768;26.198;2022-10-16T07:31:07;101792.09;;;14.32;100.00
9249;BME280;4660;41.768;26.198;2022-10-16T07:33:36;101808.13;;;14.54;100.00
9249;BME280;4660;41.768;26.198;2022-10-16T07:36:02;101809.13;;;14.63;100.00
9249;BME280;4660;41.768;26.198;2022-10-16T07:38:28;101803.72;;;14.92;100.00
9249;BME280;4660;41.768;26.198;2022-10-16T07:41:02;101815.13;;;15.25;100.00
9249;BME280;4660;41.768;26.198;2022-10-16T07:43:28;101809.13;;;15.31;100.00
9249;BME280;4660;41.768;26.198;2022-10-16T07:45:55;101823.91;;;15.56;100.00
9249;BME280;4660;41.768;26.198;2022-10-16T07:48:21;101824.22;;;15.53;100.00
9249;BME280;4660;41.768;26.198;2022-10-16T07:50:48;101829.06;;;15.68;100.00
9249;BME280;4660;41.768;26.198;2022-10-16T07:53:15;101816.91;;;15.73;100.00
9249;BME280;4660;41.768;26.198;2022-10-16T07:55:41;101820.47;;;15.73;100.00
9249;BME280;4660;41.768;26.198;2022-10-16T07:58:07;101814.31;;;15.81;100.00
9249;BME280;4660;41.768;26.198;2022-10-16T08:00:36;101816.31;;;16.06;100.00
9249;BME280;4660;41.768;26.198;2022-10-16T08:03:02;101815.72;;;16.12;100.00
9249;BME280;4660;41.768;26.198;2022-10-16T08:05:28;101814.81;;;16.21;100.00
9249;BME280;4660;41.768;26.198;2022-10-16T08:07:55;101799.84;;;16.17;100.00
9249;BME280;4660;41.768;26.198;2022-10-16T08:10:23;101815.53;;;16.51;100.00
9249;BME280;4660;41.768;26.198;2022-10-16T08:12:50;101785.22;;;16.46;82.45
9249;BME280;4660;41.768;26.198;2022-10-16T08:15:16;101825.97;;;16.91;76.08
9249;BME280;4660;41.768;26.198;2022-10-16T08:17:43;101811.28;;;17.02;69.48
9249;BME280;4660;41.768;26.198;2022-10-16T08:20:10;101770.91;;;16.89;68.22
9249;BME280;4660;41.768;26.198;2022-10-16T08:22:36;101815.81;;;17.37;66.73
9249;BME280;4660;41.768;26.198;2022-10-16T08:25:02;101808.69;;;17.36;65.18
9249;BME280;4660;41.768;26.198;2022-10-16T08:27:33;101819.28;;;17.47;63.38
9249;BME280;4660;41.768;26.198;2022-10-16T08:30:00;101832.72;;;17.49;61.90
9249;BME280;4660;41.768;26.198;2022-10-16T08:32:26;101815.34;;;17.42;62.76
9249;BME280;4660;41.768;26.198;2022-10-16T08:34:51;101840.31;;;17.63;60.80
9249;BME280;4660;41.768;26.198;2022-10-16T08:37:17;101807.09;;;17.51;59.16
9249;BME280;4660;41.768;26.198;2022-10-16T08:39:43;101799.94;;;17.50;58.52
9249;BME280;4660;41.768;26.198;2022-10-16T08:42:25;101824.44;;;17.76;58.46
9249;BME280;4660;41.768;26.198;2022-10-16T08:48:34;101830.78;;;17.85;57.95
9249;BME280;4660;41.768;26.198;2022-10-16T08:50:57;101811.44;;;17.70;59.70
9249;BME280;4660;41.768;26.198;2022-10-16T08:53:30;101829.94;;;17.84;59.79
9249;BME280;4660;41.768;26.198;2022-10-16T08:55:56;101804.16;;;17.71;57.89
9249;BME280;4660;41.768;26.198;2022-10-16T08:58:30;101775.16;;;17.87;57.60
9249;BME280;4660;41.768;26.198;2022-10-16T09:01:04;101830.97;;;17.92;55.71
9249;BME280;4660;41.768;26.198;2022-10-16T09:20:12;101747.13;;;17.95;52.95
9249;BME280;4660;41.768;26.198;2022-10-16T09:22:40;101714.06;;;17.82;53.02
9249;BME280;4660;41.768;26.198;2022-10-16T09:25:27;101754.19;;;18.22;51.74
9249;BME280;4660;41.768;26.198;2022-10-16T09:27:53;101726.75;;;18.07;51.85
9249;BME280;4660;41.768;26.198;2022-10-16T09:30:20;101759.28;;;18.25;50.48
9249;BME280;4660;41.768;26.198;2022-10-16T09:32:50;101739.41;;;17.82;50.45
9249;BME280;4660;41.768;26.198;2022-10-16T09:35:22;101776.97;;;18.21;50.45
9249;BME280;4660;41.768;26.198;2022-10-16T09:37:54;101791.72;;;18.45;50.30
9249;BME280;4660;41.768;26.198;2022-10-16T09:40:30;101732.72;;;18.19;50.15
9249;BME280;4660;41.768;26.198;2022-10-16T09:43:23;101814.63;;;18.76;50.90
9249;BME280;4660;41.768;26.198;2022-10-16T09:46:26;101786.69;;;18.66;51.37
9249;BME280;4660;41.768;26.198;2022-10-16T09:48:58;101777.13;;;18.70;51.77
9249;BME280;4660;41.768;26.198;2022-10-16T09:54:14;101774.41;;;19.19;50.85
9249;BME280;4660;41.768;26.198;2022-10-16T09:56:41;101744.59;;;19.01;50.18
9249;BME280;4660;41.768;26.198;2022-10-16T09:59:18;101706.59;;;18.75;51.24
9249;BME280;4660;41.768;26.198;2022-10-16T10:01:52;101706.91;;;19.05;52.03
9249;BME280;4660;41.768;26.198;2022-10-16T10:04:20;101709.81;;;19.03;52.30
9249;BME280;4660;41.768;26.198;2022-10-16T10:06:52;101713.59;;;18.94;53.26
9249;BME280;4660;41.768;26.198;2022-10-16T10:09:27;101746.47;;;19.01;54.28
9249;BME280;4660;41.768;26.198;2022-10-16T10:11:59;101714.91;;;19.06;55.24
9249;BME280;4660;41.768;26.198;2022-10-16T10:14:39;101690.72;;;19.03;54.78
9249;BME280;4660;41.768;26.198;2022-10-16T10:17:22;101762.28;;;19.38;54.38
9249;BME280;4660;41.768;26.198;2022-10-16T10:22:18;101735.38;;;18.86;57.28
9249;BME280;4660;41.768;26.198;2022-10-16T10:27:54;101782.56;;;19.60;58.81
9249;BME280;4660;41.768;26.198;2022-10-16T10:30:41;101783.44;;;19.99;55.98
9249;BME280;4660;41.768;26.198;2022-10-16T10:33:35;101707.13;;;19.67;56.34
9249;BME280;4660;41.768;26.198;2022-10-16T10:36:30;101721.09;;;19.56;53.26
9249;BME280;4660;41.768;26.198;2022-10-16T10:39:28;101677.03;;;19.19;56.59
9249;BME280;4660;41.768;26.198;2022-10-16T10:48:04;101685.56;;;19.24;58.67
9249;BME280;4660;41.768;26.198;2022-10-16T10:53:09;101754.91;;;19.55;61.29
9249;BME280;4660;41.768;26.198;2022-10-16T10:55:41;101765.88;;;19.38;61.42
9249;BME280;4660;41.768;26.198;2022-10-16T11:06:45;101758.88;;;20.30;61.07
9249;BME280;4660;41.768;26.198;2022-10-16T11:09:37;101763.06;;;20.49;60.85
9249;BME280;4660;41.768;26.198;2022-10-16T11:12:18;101771.75;;;20.14;59.74
9249;BME280;4660;41.768;26.198;2022-10-16T11:15:14;101744.09;;;19.77;60.59
9249;BME280;4660;41.768;26.198;2022-10-16T11:18:04;101769.38;;;19.71;60.17
9249;BME280;4660;41.768;26.198;2022-10-16T11:20:39;101767.38;;;19.65;60.04
9249;BME280;4660;41.768;26.198;2022-10-16T11:23:37;101692.06;;;19.79;58.53
9249;BME280;4660;41.768;26.198;2022-10-16T11:26:16;101673.25;;;20.38;57.31
9249;BME280;4660;41.768;26.198;2022-10-16T11:28:54;101694.63;;;20.80;56.82
9249;BME280;4660;41.768;26.198;2022-10-16T11:31:50;101667.28;;;20.12;58.69
9249;BME280;4660;41.768;26.198;2022-10-16T11:37:40;101668.81;;;19.83;59.76
9249;BME280;4660;41.768;26.198;2022-10-16T11:40:33;101755.09;;;20.09;59.25
9249;BME280;4660;41.768;26.198;2022-10-16T11:43:14;101727.00;;;19.36;59.72
9249;BME280;4660;41.768;26.198;2022-10-16T11:45:49;101662.75;;;18.93;60.37
9249;BME280;4660;41.768;26.198;2022-10-16T11:51:29;101749.34;;;19.95;59.17
9249;BME280;4660;41.768;26.198;2022-10-16T11:53:59;101753.28;;;20.24;57.71
9249;BME280;4660;41.768;26.198;2022-10-16T11:56:36;101717.53;;;20.02;57.54
9249;BME280;4660;41.768;26.198;2022-10-16T11:59:24;101677.91;;;19.75;57.42
9249;BME280;4660;41.768;26.198;2022-10-16T12:04:48;101772.59;;;20.22;56.67
9249;BME280;4660;41.768;26.198;2022-10-16T12:07:24;101676.94;;;19.60;57.47
9249;BME280;4660;41.768;26.198;2022-10-16T12:09:53;101782.53;;;20.15;57.23
9249;BME280;4660;41.768;26.198;2022-10-16T12:17:46;101754.25;;;19.44;58.33
9249;BME280;4660;41.768;26.198;2022-10-16T12:20:31;101695.81;;;19.22;58.29
9249;BME280;4660;41.768;26.198;2022-10-16T12:23:04;101711.41;;;19.53;57.60
9249;BME280;4660;41.768;26.198;2022-10-16T12:25:39;101726.06;;;19.68;57.70
9249;BME280;4660;41.768;26.198;2022-10-16T12:30:42;101680.63;;;19.75;57.32
9249;BME280;4660;41.768;26.198;2022-10-16T12:33:22;101694.09;;;19.77;56.81
9249;BME280;4660;41.768;26.198;2022-10-16T12:35:48;101698.22;;;19.73;56.77
9249;BME280;4660;41.768;26.198;2022-10-16T12:38:16;101776.47;;;20.28;55.63
9249;BME280;4660;41.768;26.198;2022-10-16T12:40:44;101702.75;;;19.89;56.47
9249;BME280;4660;41.768;26.198;2022-10-16T12:46:05;101696.28;;;20.13;56.07
9249;BME280;4660;41.768;26.198;2022-10-16T12:48:31;101700.38;;;20.17;55.77
9249;BME280;4660;41.768;26.198;2022-10-16T12:54:04;101728.66;;;20.78;54.19
9249;BME280;4660;41.768;26.198;2022-10-16T13:10:55;101781.84;;;20.52;55.17
9249;BME280;4660;41.768;26.198;2022-10-16T13:24:59;101780.88;;;20.45;54.65
9249;BME280;4660;41.768;26.198;2022-10-16T13:33:41;101754.63;;;20.28;54.59
9249;BME280;4660;41.768;26.198;2022-10-16T13:36:29;101782.50;;;20.54;54.77
9249;BME280;4660;41.768;26.198;2022-10-16T13:39:30;101759.66;;;20.47;53.82
9249;BME280;4660;41.768;26.198;2022-10-16T13:42:12;101777.28;;;20.45;53.21
9249;BME280;4660;41.768;26.198;2022-10-16T13:44:49;101760.06;;;20.28;53.71
9249;BME280;4660;41.768;26.198;2022-10-16T13:47:21;101778.16;;;20.37;53.87
9249;BME280;4660;41.768;26.198;2022-10-16T13:50:00;101779.41;;;20.26;54.06
9249;BME280;4660;41.768;26.198;2022-10-16T13:52:27;101759.22;;;19.96;54.73
9249;BME280;4660;41.768;26.198;2022-10-16T13:54:53;101748.34;;;19.88;55.06
9249;BME280;4660;41.768;26.198;2022-10-16T13:57:22;101734.03;;;19.78;55.80
9249;BME280;4660;41.768;26.198;2022-10-16T13:59:48;101759.38;;;20.03;55.37
9249;BME280;4660;41.768;26.198;2022-10-16T14:02:25;101689.72;;;19.68;54.43
9249;BME280;4660;41.768;26.198;2022-10-16T14:04:53;101670.66;;;19.51;54.50
9249;BME280;4660;41.768;26.198;2022-10-16T14:07:28;101765.91;;;20.25;54.38
9249;BME280;4660;41.768;26.198;2022-10-16T14:09:55;101756.97;;;20.00;55.16
9249;BME280;4660;41.768;26.198;2022-10-16T14:12:23;101775.56;;;20.04;55.25
9249;BME280;4660;41.768;26.198;2022-10-16T14:14:52;101728.88;;;19.83;55.53
9249;BME280;4660;41.768;26.198;2022-10-16T14:17:25;101711.31;;;19.77;53.79
9249;BME280;4660;41.768;26.198;2022-10-16T14:19:56;101753.81;;;19.88;53.43
9249;BME280;4660;41.768;26.198;2022-10-16T14:22:35;101782.13;;;19.95;53.95
9249;BME280;4660;41.768;26.198;2022-10-16T14:25:08;101790.81;;;19.91;53.94
9249;BME280;4660;41.768;26.198;2022-10-16T14:27:39;101775.00;;;19.78;54.42
9249;BME280;4660;41.768;26.198;2022-10-16T14:32:34;101715.50;;;19.49;54.73
9249;BME280;4660;41.768;26.198;2022-10-16T14:35:01;101730.34;;;19.55;54.16
9249;BME280;4660;41.768;26.198;2022-10-16T14:37:29;101769.06;;;20.05;53.44
9249;BME280;4660;41.768;26.198;2022-10-16T14:39:55;101763.94;;;20.11;52.51
9249;BME280;4660;41.768;26.198;2022-10-16T14:42:24;101733.22;;;19.69;52.11
9249;BME280;4660;41.768;26.198;2022-10-16T14:44:52;101715.69;;;19.47;52.53
9249;BME280;4660;41.768;26.198;2022-10-16T14:47:22;101731.72;;;19.42;52.08
9249;BME280;4660;41.768;26.198;2022-10-16T14:49:54;101803.31;;;19.85;52.41
9249;BME280;4660;41.768;26.198;2022-10-16T14:52:25;101754.75;;;19.48;52.79
9249;BME280;4660;41.768;26.198;2022-10-16T14:54:54;101784.22;;;19.77;52.07
9249;BME280;4660;41.768;26.198;2022-10-16T14:57:24;101758.34;;;19.65;51.87
9249;BME280;4660;41.768;26.198;2022-10-16T15:00:00;101808.88;;;20.00;51.75
9249;BME280;4660;41.768;26.198;2022-10-16T15:02:33;101816.69;;;20.11;51.73
9249;BME280;4660;41.768;26.198;2022-10-16T15:07:45;101815.19;;;20.09;51.79
9249;BME280;4660;41.768;26.198;2022-10-16T15:10:13;101795.81;;;19.87;51.69
9249;BME280;4660;41.768;26.198;2022-10-16T15:12:42;101819.69;;;19.93;52.24
9249;BME280;4660;41.768;26.198;2022-10-16T15:17:58;101817.34;;;19.41;53.59
9249;BME280;4660;41.768;26.198;2022-10-16T15:20:36;101832.41;;;19.37;53.59
9249;BME280;4660;41.768;26.198;2022-10-16T15:23:05;101826.25;;;19.19;54.06